createdAt,value
2022-09-21T00:01:23.706Z,8.86
2022-09-21T00:03:54.539Z,9.01
2022-09-21T00:06:23.717Z,8.95
2022-09-21T00:08:51.785Z,8.75
2022-09-21T00:11:22.011Z,8.67
2022-09-21T00:13:54.187Z,8.66
2022-09-21T00:16:22.401Z,8.71
2022-09-21T00:18:50.333Z,8.62
2022-09-21T00:21:19.195Z,8.69
2022-09-21T00:23:47.578Z,8.56
2022-09-21T00:26:17.970Z,8.35
2022-09-21T00:28:46.030Z,8.24
2022-09-21T00:31:17.716Z,8.21
2022-09-21T00:33:45.909Z,8.27
2022-09-21T00:36:16.665Z,8.32
2022-09-21T00:38:44.737Z,8.48
2022-09-21T00:41:13.382Z,8.15
2022-09-21T00:43:44.090Z,8.10
2022-09-21T00:46:17.005Z,8.10
2022-09-21T00:48:46.955Z,8.11
2022-09-21T00:51:15.162Z,8.27
2022-09-21T00:53:43.122Z,8.28
2022-09-21T00:56:11.931Z,8.15
2022-09-21T00:58:43.183Z,8.17
2022-09-21T01:01:11.625Z,8.02
2022-09-21T01:03:45.892Z,7.99
2022-09-21T01:06:14.121Z,8.17
2022-09-21T01:08:42.583Z,8.38
2022-09-21T01:11:25.298Z,8.34
2022-09-21T01:14:07.326Z,8.36
2022-09-21T01:16:40.734Z,8.43
2022-09-21T01:19:23.181Z,8.54
2022-09-21T01:21:55.993Z,8.71
2022-09-21T01:24:50.417Z,8.59
2022-09-21T01:27:47.995Z,8.07
2022-09-21T01:30:18.933Z,7.83
2022-09-21T01:32:50.527Z,8.05
2022-09-21T01:35:20.693Z,8.07
2022-09-21T01:37:50.839Z,7.92
2022-09-21T01:40:21.775Z,7.80
2022-09-21T01:42:51.364Z,7.70
2022-09-21T01:45:26.588Z,7.61
2022-09-21T01:47:55.954Z,7.82
2022-09-21T01:50:24.332Z,7.89
2022-09-21T01:52:55.427Z,7.71
2022-09-21T01:55:27.210Z,7.64
2022-09-21T01:57:58.170Z,7.60
2022-09-21T02:00:27.842Z,7.67
2022-09-21T02:02:59.201Z,7.70
2022-09-21T02:05:28.430Z,7.81
2022-09-21T02:07:57.058Z,7.86
2022-09-21T02:10:28.596Z,7.82
2022-09-21T02:13:01.349Z,7.88
2022-09-21T02:15:38.691Z,8.10
2022-09-21T02:18:09.053Z,8.24
2022-09-21T02:20:40.674Z,8.47
2022-09-21T02:23:13.858Z,8.39
2022-09-21T02:25:48.294Z,8.30
2022-09-21T02:28:25.182Z,8.39
2022-09-21T02:30:59.862Z,8.43
2022-09-21T02:33:32.378Z,8.43
2022-09-21T02:36:07.661Z,8.38
2022-09-21T02:38:40.312Z,8.42
2022-09-21T02:41:14.220Z,8.45
2022-09-21T02:43:45.275Z,8.19
2022-09-21T02:46:17.816Z,7.95
2022-09-21T02:48:48.134Z,7.45
2022-09-21T02:51:19.090Z,7.18
2022-09-21T02:53:48.375Z,7.06
2022-09-21T02:56:16.834Z,7.01
2022-09-21T02:58:47.676Z,7.11
2022-09-21T03:01:17.877Z,7.37
2022-09-21T03:03:45.930Z,7.54
2022-09-21T03:06:13.871Z,7.49
2022-09-21T03:08:42.029Z,7.50
2022-09-21T03:11:10.858Z,7.41
2022-09-21T03:13:38.866Z,7.37
2022-09-21T03:16:08.310Z,7.43
2022-09-21T03:18:37.680Z,7.46
2022-09-21T03:21:05.574Z,7.72
2022-09-21T03:23:33.648Z,7.87
2022-09-21T03:26:01.563Z,7.96
2022-09-21T03:28:29.598Z,8.01
2022-09-21T03:30:57.835Z,7.80
2022-09-21T03:33:26.490Z,7.77
2022-09-21T03:35:55.818Z,7.77
2022-09-21T03:38:24.778Z,7.71
2022-09-21T03:40:53.640Z,7.61
2022-09-21T03:43:21.532Z,7.29
2022-09-21T03:45:49.481Z,7.16
2022-09-21T03:48:17.418Z,7.14
2022-09-21T03:50:45.416Z,7.35
2022-09-21T03:53:15.244Z,7.30
2022-09-21T03:55:43.257Z,6.90
2022-09-21T03:58:11.252Z,6.87
2022-09-21T04:00:39.302Z,7.30
2022-09-21T04:03:07.552Z,7.10
2022-09-21T04:05:36.009Z,6.89
2022-09-21T04:08:04.362Z,6.86
2022-09-21T04:10:33.915Z,6.78
2022-09-21T04:13:03.524Z,6.65
2022-09-21T04:15:31.656Z,6.71
2022-09-21T04:17:59.677Z,6.83
2022-09-21T04:20:27.697Z,6.31
2022-09-21T04:22:55.609Z,6.17
2022-09-21T04:25:23.615Z,6.67
2022-09-21T04:27:53.077Z,6.77
2022-09-21T04:30:21.114Z,6.55
2022-09-21T04:32:49.033Z,6.73
2022-09-21T04:35:17.093Z,6.69
2022-09-21T04:37:45.025Z,6.98
2022-09-21T04:40:13.023Z,6.77
2022-09-21T04:42:40.962Z,6.64
2022-09-21T04:45:11.588Z,6.82
2022-09-21T04:47:39.649Z,6.75
2022-09-21T04:50:08.781Z,6.73
2022-09-21T04:52:36.881Z,6.73
2022-09-21T04:55:05.490Z,6.89
2022-09-21T04:57:33.786Z,6.40
2022-09-21T05:00:01.812Z,5.77
2022-09-21T05:02:31.065Z,6.10
2022-09-21T05:04:58.981Z,6.50
2022-09-21T05:07:26.864Z,6.54
2022-09-21T05:10:05.713Z,6.54
2022-09-21T05:12:34.382Z,6.63
2022-09-21T05:15:02.431Z,6.79
2022-09-21T05:17:31.725Z,6.98
2022-09-21T05:19:59.626Z,6.67
2022-09-21T05:22:29.189Z,6.41
2022-09-21T05:24:57.064Z,6.44
2022-09-21T05:27:25.038Z,6.75
2022-09-21T05:29:53.521Z,6.70
2022-09-21T05:32:26.105Z,6.42
2022-09-21T05:35:03.106Z,6.42
2022-09-21T05:37:47.143Z,6.56
2022-09-21T05:40:16.040Z,6.41
2022-09-21T05:42:44.660Z,6.12
2022-09-21T05:45:15.875Z,6.43
2022-09-21T05:47:54.355Z,6.21
2022-09-21T05:50:35.429Z,6.21
2022-09-21T05:53:11.286Z,6.17
2022-09-21T05:55:47.432Z,6.18
2022-09-21T05:58:22.834Z,6.32
2022-09-21T06:00:58.958Z,6.62
2022-09-21T06:03:31.177Z,6.79
2022-09-21T06:06:00.707Z,6.77
2022-09-21T06:08:28.929Z,6.65
2022-09-21T06:10:57.113Z,6.53
2022-09-21T06:13:24.985Z,6.62
2022-09-21T06:15:52.928Z,6.67
2022-09-21T06:18:20.920Z,6.66
2022-09-21T06:20:49.034Z,6.81
2022-09-21T06:23:18.317Z,6.97
2022-09-21T06:25:46.213Z,6.98
2022-09-21T06:28:14.955Z,7.03
2022-09-21T06:30:45.055Z,7.19
2022-09-21T06:33:12.993Z,7.27
2022-09-21T06:35:41.451Z,7.38
2022-09-21T06:38:09.570Z,7.52
2022-09-21T06:40:38.940Z,7.68
2022-09-21T06:43:07.325Z,7.79
2022-09-21T06:45:35.350Z,7.96
2022-09-21T06:48:03.706Z,8.04
2022-09-21T06:50:31.593Z,8.13
2022-09-21T06:53:01.171Z,8.20
2022-09-21T06:55:29.462Z,8.24
2022-09-21T06:58:03.023Z,8.48
2022-09-21T07:00:31.362Z,8.60
2022-09-21T07:02:59.523Z,8.67
2022-09-21T07:05:27.949Z,8.74
2022-09-21T07:07:59.217Z,8.88
2022-09-21T07:10:27.560Z,8.97
2022-09-21T07:12:55.577Z,8.99
2022-09-21T07:15:25.343Z,9.13
2022-09-21T07:18:05.054Z,9.22
2022-09-21T07:20:33.815Z,9.37
2022-09-21T07:23:01.839Z,9.54
2022-09-21T07:25:29.733Z,9.61
2022-09-21T07:27:57.686Z,9.67
2022-09-21T07:30:27.865Z,9.89
2022-09-21T07:32:55.756Z,9.94
2022-09-21T07:35:23.637Z,9.95
2022-09-21T07:37:51.585Z,10.08
2022-09-21T07:40:24.354Z,10.04
2022-09-21T07:42:53.173Z,10.31
2022-09-21T07:45:21.160Z,10.34
2022-09-21T07:47:50.524Z,10.34
2022-09-21T07:50:18.498Z,10.69
2022-09-21T07:52:46.383Z,10.86
2022-09-21T07:55:14.413Z,10.83
2022-09-21T07:58:00.237Z,11.11
2022-09-21T08:00:29.265Z,11.35
2022-09-21T08:02:58.510Z,11.28
2022-09-21T08:05:26.426Z,11.47
2022-09-21T08:07:56.813Z,11.66
2022-09-21T08:10:25.447Z,11.74
2022-09-21T08:12:53.438Z,12.00
2022-09-21T08:15:46.705Z,12.04
2022-09-21T08:18:10.941Z,12.30
2022-09-21T08:20:38.970Z,12.34
2022-09-21T08:23:06.875Z,12.37
2022-09-21T08:25:34.941Z,12.41
2022-09-21T08:28:07.363Z,12.68
2022-09-21T08:30:37.595Z,12.86
2022-09-21T08:33:07.062Z,12.79
2022-09-21T08:35:37.060Z,12.91
2022-09-21T08:38:04.954Z,13.06
2022-09-21T08:40:34.125Z,13.07
2022-09-21T08:43:04.774Z,13.23
2022-09-21T08:45:35.162Z,13.32
2022-09-21T08:48:06.090Z,13.38
2022-09-21T08:50:39.112Z,13.51
2022-09-21T08:53:09.626Z,13.47
2022-09-21T08:55:37.585Z,13.62
2022-09-21T08:58:05.505Z,13.69
2022-09-21T09:00:38.119Z,13.67
2022-09-21T09:03:24.525Z,14.10
2022-09-21T09:05:58.226Z,14.15
2022-09-21T09:08:48.858Z,14.16
2022-09-21T09:11:26.715Z,14.21
2022-09-21T09:14:05.980Z,14.15
2022-09-21T09:16:39.781Z,14.57
2022-09-21T09:19:17.231Z,14.56
2022-09-21T09:21:46.692Z,14.60
2022-09-21T09:24:17.805Z,14.62
2022-09-21T09:26:47.693Z,14.66
2022-09-21T09:29:20.636Z,14.82
2022-09-21T09:31:49.917Z,14.77
2022-09-21T09:34:20.822Z,14.94
2022-09-21T09:36:58.827Z,14.91
2022-09-21T09:39:30.052Z,14.88
2022-09-21T09:42:08.093Z,15.12
2022-09-21T09:45:04.814Z,15.11
2022-09-21T09:47:41.420Z,15.13
2022-09-21T09:50:13.174Z,15.19
2022-09-21T09:52:42.593Z,15.24
2022-09-21T09:55:20.224Z,15.59
2022-09-21T09:57:49.145Z,15.73
2022-09-21T10:00:19.813Z,15.77
2022-09-21T10:02:49.424Z,16.11
2022-09-21T10:05:23.570Z,16.20
2022-09-21T10:07:54.609Z,16.20
2022-09-21T10:10:33.462Z,16.65
2022-09-21T10:13:08.470Z,16.04
2022-09-21T10:15:43.138Z,16.13
2022-09-21T10:18:20.925Z,16.85
2022-09-21T10:21:00.272Z,17.00
2022-09-21T10:23:30.263Z,16.89
2022-09-21T10:26:00.912Z,16.99
2022-09-21T10:28:29.540Z,17.00
2022-09-21T10:31:19.050Z,17.38
2022-09-21T10:33:53.292Z,17.36
2022-09-21T10:36:35.058Z,17.34
2022-09-21T10:39:19.612Z,17.51
2022-09-21T10:41:56.247Z,17.68
2022-09-21T10:44:28.184Z,17.55
2022-09-21T10:49:30.446Z,17.10
2022-09-21T10:51:59.668Z,17.06
2022-09-21T10:54:31.609Z,17.05
2022-09-21T10:57:02.418Z,17.11
2022-09-21T10:59:32.149Z,17.10
2022-09-21T11:02:01.400Z,17.30
2022-09-21T11:04:42.522Z,17.27
2022-09-21T11:07:16.458Z,17.24
2022-09-21T11:09:50.297Z,17.28
2022-09-21T11:12:35.737Z,17.64
2022-09-21T11:15:28.941Z,18.04
2022-09-21T11:18:08.063Z,17.21
2022-09-21T11:20:43.039Z,16.50
2022-09-21T11:23:22.909Z,16.13
2022-09-21T11:25:59.949Z,16.00
2022-09-21T11:28:30.941Z,16.06
2022-09-21T11:31:10.344Z,16.04
2022-09-21T11:33:55.725Z,16.50
2022-09-21T11:36:31.093Z,16.95
2022-09-21T11:39:06.494Z,17.19
2022-09-21T11:41:52.274Z,17.89
2022-09-21T11:44:28.966Z,17.82
2022-09-21T11:47:04.789Z,18.31
2022-09-21T11:50:29.783Z,17.79
2022-09-21T11:53:06.937Z,18.41
2022-09-21T11:55:48.206Z,18.76
2022-09-21T11:58:24.708Z,17.62
2022-09-21T12:01:03.242Z,18.61
2022-09-21T12:03:50.712Z,18.58
2022-09-21T12:06:27.684Z,18.27
2022-09-21T12:09:19.011Z,18.70
2022-09-21T12:11:52.308Z,18.84
2022-09-21T12:14:28.837Z,17.95
2022-09-21T12:17:03.371Z,17.78
2022-09-21T12:19:38.550Z,19.48
2022-09-21T12:22:10.595Z,18.77
2022-09-21T12:24:42.013Z,18.81
2022-09-21T12:27:19.546Z,20.01
2022-09-21T12:29:53.319Z,20.03
2022-09-21T12:32:25.534Z,19.94
2022-09-21T12:34:57.169Z,20.55
2022-09-21T12:37:31.648Z,20.98
2022-09-21T12:40:02.744Z,20.10
2022-09-21T12:42:35.272Z,19.13
2022-09-21T12:45:07.454Z,20.86
2022-09-21T12:47:46.611Z,21.02
2022-09-21T12:50:21.662Z,21.49
2022-09-21T12:52:51.602Z,21.60
2022-09-21T12:55:29.482Z,21.37
2022-09-21T12:58:16.708Z,21.19
2022-09-21T13:00:53.576Z,21.83
2022-09-21T13:03:29.105Z,21.58
2022-09-21T13:06:15.338Z,21.38
2022-09-21T13:08:44.766Z,22.06
2022-09-21T13:11:13.252Z,21.99
2022-09-21T13:13:53.056Z,21.24
2022-09-21T13:16:27.759Z,21.28
2022-09-21T13:18:57.856Z,22.25
2022-09-21T13:21:27.973Z,22.24
2022-09-21T13:23:57.593Z,22.70
2022-09-21T13:26:35.879Z,22.81
2022-09-21T13:29:37.108Z,22.54
2022-09-21T13:32:23.755Z,21.84
2022-09-21T13:34:52.092Z,22.01
2022-09-21T13:37:34.829Z,22.46
2022-09-21T13:40:40.444Z,22.28
2022-09-21T13:43:24.655Z,22.57
2022-09-21T13:45:57.874Z,21.97
2022-09-21T13:48:29.869Z,21.54
2022-09-21T13:50:59.862Z,22.65
2022-09-21T13:53:33.479Z,22.63
2022-09-21T13:56:03.306Z,23.25
2022-09-21T13:58:34.004Z,23.55
2022-09-21T14:01:04.708Z,23.64
2022-09-21T14:03:37.323Z,23.30
2022-09-21T14:06:08.819Z,22.72
2022-09-21T14:08:39.406Z,23.00
2022-09-21T14:11:09.101Z,21.92
2022-09-21T14:13:38.768Z,22.87
2022-09-21T14:16:45.827Z,22.58
2022-09-21T14:19:51.133Z,23.84
2022-09-21T14:22:40.454Z,24.27
2022-09-21T14:25:47.769Z,23.79
2022-09-21T14:28:18.372Z,23.07
2022-09-21T14:30:52.762Z,23.55
2022-09-21T14:33:34.039Z,23.32
2022-09-21T14:36:06.201Z,23.46
2022-09-21T14:38:42.287Z,23.86
2022-09-21T14:41:15.092Z,23.99
2022-09-21T14:43:52.341Z,23.96
2022-09-21T14:46:30.291Z,23.41
2022-09-21T14:49:12.434Z,23.59
2022-09-21T14:51:45.645Z,23.52
2022-09-21T14:54:31.480Z,23.98
2022-09-21T14:57:15.058Z,22.89
2022-09-21T15:00:05.350Z,22.86
2022-09-21T15:02:37.227Z,23.09
2022-09-21T15:05:20.454Z,22.86
2022-09-21T15:08:10.653Z,23.46
2022-09-21T15:10:57.968Z,23.29
2022-09-21T15:13:38.592Z,22.58
2022-09-21T15:16:17.897Z,22.24
2022-09-21T15:18:47.807Z,23.53
2022-09-21T15:21:24.572Z,24.67
2022-09-21T15:23:53.021Z,23.99
2022-09-21T15:26:26.637Z,24.84
2022-09-21T15:29:11.520Z,25.37
2022-09-21T15:31:41.356Z,25.50
2022-09-21T15:34:10.832Z,25.68
2022-09-21T15:36:40.518Z,25.81
2022-09-21T15:39:19.540Z,26.19
2022-09-21T15:41:50.781Z,26.30
2022-09-21T15:44:20.173Z,26.25
2022-09-21T15:46:50.595Z,26.36
2022-09-21T15:49:22.043Z,26.49
2022-09-21T15:51:53.219Z,26.53
2022-09-21T15:54:30.559Z,26.65
2022-09-21T15:57:08.621Z,26.49
2022-09-21T15:59:36.805Z,26.90
2022-09-21T16:02:13.215Z,26.74
2022-09-21T16:04:49.341Z,27.10
2022-09-21T16:07:26.917Z,27.20
2022-09-21T16:09:55.040Z,27.42
2022-09-21T16:12:48.298Z,27.44
2022-09-21T16:15:18.444Z,27.01
2022-09-21T16:18:05.238Z,26.79
2022-09-21T16:20:50.761Z,26.26
2022-09-21T16:23:20.758Z,25.28
2022-09-21T16:25:55.389Z,24.13
2022-09-21T16:28:36.714Z,22.30
2022-09-21T16:31:26.883Z,21.46
2022-09-21T16:34:21.786Z,20.63
2022-09-21T16:36:51.640Z,20.63
2022-09-21T16:39:20.305Z,20.36
2022-09-21T16:42:00.207Z,20.55
2022-09-21T16:44:30.898Z,19.98
2022-09-21T16:47:00.825Z,19.33
2022-09-21T16:49:31.269Z,19.30
2022-09-21T16:51:59.719Z,19.62
2022-09-21T16:54:27.835Z,19.46
2022-09-21T16:56:57.427Z,18.48
2022-09-21T16:59:26.446Z,17.92
2022-09-21T17:01:57.637Z,17.67
2022-09-21T17:04:27.236Z,16.88
2022-09-21T17:06:55.630Z,16.24
2022-09-21T17:09:29.183Z,16.14
2022-09-21T17:11:59.418Z,15.99
2022-09-21T17:14:27.352Z,16.09
2022-09-21T17:16:59.175Z,17.02
2022-09-21T17:19:27.269Z,17.73
2022-09-21T17:21:55.165Z,17.23
2022-09-21T17:24:48.705Z,16.54
2022-09-21T17:27:11.261Z,15.97
2022-09-21T17:29:40.263Z,15.86
2022-09-21T17:32:11.658Z,15.22
2022-09-21T17:34:40.978Z,14.96
2022-09-21T17:37:10.389Z,15.14
2022-09-21T17:39:38.281Z,14.91
2022-09-21T17:42:15.090Z,15.46
2022-09-21T17:44:52.475Z,16.39
2022-09-21T17:47:25.318Z,16.28
2022-09-21T17:49:53.674Z,16.53
2022-09-21T17:52:41.034Z,16.11
2022-09-21T17:55:11.965Z,15.09
2022-09-21T17:57:48.730Z,13.77
2022-09-21T18:00:21.192Z,13.63
2022-09-21T18:02:50.909Z,13.71
2022-09-21T18:05:25.157Z,14.37
2022-09-21T18:07:53.616Z,15.30
2022-09-21T18:10:22.926Z,15.49
2022-09-21T18:13:21.782Z,14.65
2022-09-21T18:15:57.947Z,14.43
2022-09-21T18:18:38.568Z,15.01
2022-09-21T18:21:10.287Z,15.10
2022-09-21T18:23:47.266Z,14.41
2022-09-21T18:26:18.336Z,14.02
2022-09-21T18:28:47.601Z,13.71
2022-09-21T18:31:31.031Z,13.64
2022-09-21T18:34:13.558Z,13.87
2022-09-21T18:36:48.513Z,13.82
2022-09-21T18:39:23.908Z,13.38
2022-09-21T18:42:04.328Z,13.61
2022-09-21T18:44:38.083Z,13.77
2022-09-21T18:47:12.028Z,13.82
2022-09-21T18:49:51.481Z,13.93
2022-09-21T18:52:29.644Z,13.40
2022-09-21T18:54:57.914Z,13.03
2022-09-21T18:57:26.323Z,12.67
2022-09-21T18:59:54.890Z,13.26
2022-09-21T19:02:23.404Z,13.49
2022-09-21T19:04:53.309Z,13.58
2022-09-21T19:07:28.342Z,13.86
2022-09-21T19:10:06.395Z,13.74
2022-09-21T19:12:47.271Z,13.40
2022-09-21T19:15:27.532Z,13.84
2022-09-21T19:18:15.014Z,14.20
2022-09-21T19:21:00.136Z,13.78
2022-09-21T19:23:38.693Z,13.89
2022-09-21T19:26:13.297Z,13.16
2022-09-21T19:28:53.619Z,12.86
2022-09-21T19:31:21.859Z,12.85
2022-09-21T19:33:51.412Z,12.83
2022-09-21T19:36:21.410Z,12.88
2022-09-21T19:38:49.709Z,13.27
2022-09-21T19:41:36.061Z,13.42
2022-09-21T19:44:14.625Z,13.42
2022-09-21T19:46:49.286Z,13.18
2022-09-21T19:49:19.060Z,12.95
2022-09-21T19:51:50.013Z,12.89
2022-09-21T19:54:36.993Z,12.69
2022-09-21T19:57:26.426Z,12.77
2022-09-21T19:59:54.917Z,12.70
2022-09-21T20:02:28.711Z,12.85
2022-09-21T20:04:58.280Z,12.99
2022-09-21T20:07:35.678Z,13.21
2022-09-21T20:10:32.074Z,13.13
2022-09-21T20:13:07.309Z,13.04
2022-09-21T20:15:39.361Z,12.13
2022-09-21T20:18:12.925Z,11.91
2022-09-21T20:20:42.161Z,11.85
2022-09-21T20:23:12.622Z,11.42
2022-09-21T20:25:48.617Z,11.48
2022-09-21T20:28:17.577Z,11.28
2022-09-21T20:30:45.882Z,11.21
2022-09-21T20:33:15.346Z,11.78
2022-09-21T20:35:43.950Z,11.95
2022-09-21T20:38:14.887Z,11.68
2022-09-21T20:40:43.822Z,11.87
2022-09-21T20:43:12.194Z,11.93
2022-09-21T20:45:40.860Z,12.11
2022-09-21T20:48:15.774Z,12.20
2022-09-21T20:50:44.567Z,12.27
2022-09-21T20:53:14.321Z,12.18
2022-09-21T20:55:43.206Z,12.10
2022-09-21T20:58:13.134Z,11.95
2022-09-21T21:00:41.036Z,11.76
2022-09-21T21:03:08.945Z,11.58
2022-09-21T21:05:37.258Z,11.67
2022-09-21T21:08:05.168Z,11.69
2022-09-21T21:10:34.670Z,11.92
2022-09-21T21:13:02.699Z,11.83
2022-09-21T21:15:31.398Z,11.73
2022-09-21T21:17:59.417Z,11.74
2022-09-21T21:20:29.045Z,11.62
2022-09-21T21:22:56.959Z,11.92
2022-09-21T21:25:24.919Z,12.02
2022-09-21T21:27:57.455Z,11.90
2022-09-21T21:30:25.513Z,11.71
2022-09-21T21:32:53.428Z,11.79
2022-09-21T21:35:21.356Z,11.90
2022-09-21T21:37:49.762Z,11.89
2022-09-21T21:40:17.913Z,11.63
2022-09-21T21:42:45.830Z,11.36
2022-09-21T21:45:15.258Z,11.16
2022-09-21T21:47:43.170Z,10.93
2022-09-21T21:50:11.296Z,10.57
2022-09-21T21:52:39.293Z,10.63
2022-09-21T21:55:08.162Z,10.58
2022-09-21T21:57:36.060Z,10.24
2022-09-21T22:00:05.209Z,10.41
2022-09-21T22:02:34.586Z,10.62
2022-09-21T22:05:02.506Z,10.68
2022-09-21T22:07:30.450Z,10.68
2022-09-21T22:09:58.350Z,10.67
2022-09-21T22:12:26.318Z,10.57
2022-09-21T22:14:54.229Z,10.86
2022-09-21T22:17:22.099Z,11.11
2022-09-21T22:19:51.519Z,11.31
2022-09-21T22:22:19.425Z,11.36
2022-09-21T22:24:48.068Z,11.34
2022-09-21T22:27:16.510Z,11.21
2022-09-21T22:29:44.990Z,11.07
2022-09-21T22:32:12.924Z,11.08
2022-09-21T22:34:40.858Z,11.20
2022-09-21T22:37:10.177Z,11.08
2022-09-21T22:39:38.038Z,10.87
2022-09-21T22:42:06.174Z,10.49
2022-09-21T22:44:34.033Z,10.19
2022-09-21T22:47:01.998Z,10.22
2022-09-21T22:49:29.894Z,10.59
2022-09-21T22:51:57.781Z,10.87
2022-09-21T22:54:27.866Z,11.00
2022-09-21T22:56:55.786Z,10.99
2022-09-21T22:59:23.695Z,10.93
2022-09-21T23:01:51.570Z,10.97
2022-09-21T23:04:20.765Z,11.05
2022-09-21T23:06:49.635Z,11.08
2022-09-21T23:09:19.665Z,11.06
2022-09-21T23:11:53.278Z,11.02
2022-09-21T23:14:22.484Z,10.83
2022-09-21T23:16:50.676Z,10.74
2022-09-21T23:19:18.553Z,10.75
2022-09-21T23:21:49.628Z,10.79
2022-09-21T23:24:17.922Z,10.72
2022-09-21T23:26:46.765Z,10.67
2022-09-21T23:29:16.935Z,10.41
2022-09-21T23:31:46.261Z,10.28
2022-09-21T23:34:15.527Z,9.63
2022-09-21T23:36:44.193Z,9.36
2022-09-21T23:39:13.045Z,8.78
2022-09-21T23:41:41.230Z,8.69
2022-09-21T23:44:09.435Z,8.50
2022-09-21T23:46:39.764Z,8.68
2022-09-21T23:49:07.809Z,9.43
2022-09-21T23:51:36.457Z,9.56
2022-09-21T23:54:05.014Z,9.30
2022-09-21T23:56:33.248Z,9.09
2022-09-21T23:59:01.529Z,9.13
